Time;durP1;ratioP1;P1;durP2;ratioP2;P2;SDS_P1;SDS_P2;PMS_P1;PMS_P2;Temp;Humidity;BMP_temperature;BMP_pressure;BME280_temperature;BME280_humidity;BME280_pressure;Samples;Min_cycle;Max_cycle;Signal;HPM_P1;HPM_P2
2021/03/15 00:01:11;;;;;;;37.55;36.17;;;;;;;;;;5045680;28;20048;-76
2021/03/15 00:03:38;;;;;;;37.53;36.15;;;;;;;;;;5025919;28;20104;-76
2021/03/15 00:06:06;;;;;;;37.85;36.47;;;;;;;;;;5048940;28;20083;-76
2021/03/15 00:08:33;;;;;;;34.40;33.47;;;;;;;;;;5014568;28;20540;-76
2021/03/15 00:11:00;;;;;;;36.08;34.85;;;;;;;;;;5029456;28;20095;-77
2021/03/15 00:13:28;;;;;;;36.88;35.58;;;;;;;;;;5048719;28;20033;-76
2021/03/15 00:15:56;;;;;;;35.17;34.00;;;;;;;;;;5030178;28;20047;-76
2021/03/15 00:18:24;;;;;;;38.30;37.00;;;;;;;;;;5033904;28;20103;-76
2021/03/15 00:20:51;;;;;;;33.13;32.22;;;;;;;;;;5017101;28;20567;-76
2021/03/15 00:23:18;;;;;;;38.70;37.50;;;;;;;;;;5030841;28;20474;-76
2021/03/15 00:25:45;;;;;;;34.55;33.47;;;;;;;;;;5018897;28;20045;-76
2021/03/15 00:28:13;;;;;;;37.22;36.00;;;;;;;;;;5045262;28;20048;-76
2021/03/15 00:30:40;;;;;;;38.45;36.95;;;;;;;;;;5035322;28;20094;-76
2021/03/15 00:33:07;;;;;;;36.92;35.47;;;;;;;;;;5031750;28;20037;-76
2021/03/15 00:35:34;;;;;;;38.88;37.03;;;;;;;;;;5049673;28;20355;-76
2021/03/15 00:38:01;;;;;;;40.22;38.50;;;;;;;;;;5035265;28;20118;-76
2021/03/15 00:40:28;;;;;;;43.00;40.67;;;;;;;;;;5046296;28;20130;-76
2021/03/15 00:42:58;;;;;;;37.85;36.75;;;;;;;;;;5051047;28;20410;-76
2021/03/15 00:45:26;;;;;;;39.92;38.13;;;;;;;;;;5032094;28;20045;-76
2021/03/15 00:47:54;;;;;;;43.50;41.30;;;;;;;;;;5029998;28;20152;-76
2021/03/15 00:50:26;;;;;;;40.60;38.60;;;;;;;;;;5034936;28;20440;-76
2021/03/15 00:52:54;;;;;;;39.58;37.40;;;;;;;;;;5046847;28;20049;-76
2021/03/15 00:55:20;;;;;;;39.38;37.67;;;;;;;;;;5049624;28;20030;-75
2021/03/15 00:57:48;;;;;;;39.08;37.20;;;;;;;;;;5033725;28;20607;-75
2021/03/15 01:00:16;;;;;;;37.25;35.80;;;;;;;;;;5046883;28;20041;-75
2021/03/15 01:02:43;;;;;;;37.17;36.08;;;;;;;;;;5052763;28;20048;-75
2021/03/15 01:05:11;;;;;;;37.42;35.88;;;;;;;;;;5029609;28;20494;-76
2021/03/15 01:07:39;;;;;;;40.00;38.50;;;;;;;;;;5050136;28;20029;-76
2021/03/15 01:10:08;;;;;;;37.53;36.05;;;;;;;;;;5050937;28;20045;-76
2021/03/15 01:12:35;;;;;;;38.80;37.38;;;;;;;;;;5046492;28;20045;-76
2021/03/15 01:15:04;;;;;;;40.67;39.15;;;;;;;;;;5051168;28;20045;-76
2021/03/15 01:17:31;;;;;;;40.25;38.67;;;;;;;;;;5047542;28;20371;-76
2021/03/15 01:19:58;;;;;;;41.05;39.63;;;;;;;;;;5014481;28;20045;-76
2021/03/15 01:22:26;;;;;;;37.88;36.58;;;;;;;;;;5052750;28;20037;-76
2021/03/15 01:24:53;;;;;;;40.78;39.25;;;;;;;;;;5046453;28;20045;-76
2021/03/15 01:27:20;;;;;;;38.20;36.53;;;;;;;;;;5032400;28;20511;-76
2021/03/15 01:29:47;;;;;;;40.85;39.40;;;;;;;;;;5034102;28;20044;-76
2021/03/15 01:32:14;;;;;;;39.05;37.67;;;;;;;;;;5046904;28;20050;-76
2021/03/15 01:34:41;;;;;;;40.65;39.20;;;;;;;;;;5012509;28;20044;-76
2021/03/15 01:37:09;;;;;;;37.10;35.97;;;;;;;;;;5030048;28;20131;-76
2021/03/15 01:39:36;;;;;;;39.60;37.90;;;;;;;;;;5030502;28;20077;-75
2021/03/15 01:42:03;;;;;;;40.42;38.70;;;;;;;;;;5033335;28;20091;-75
2021/03/15 01:44:31;;;;;;;38.53;36.95;;;;;;;;;;5029769;28;20490;-75
2021/03/15 01:46:58;;;;;;;63.00;41.15;;;;;;;;;;5032534;28;20053;-75
2021/03/15 01:49:25;;;;;;;108.78;43.42;;;;;;;;;;5028367;28;20064;-75
2021/03/15 01:51:52;;;;;;;42.25;39.22;;;;;;;;;;5032734;28;20045;-75
2021/03/15 01:54:20;;;;;;;42.30;39.80;;;;;;;;;;5032017;28;20091;-75
2021/03/15 01:56:47;;;;;;;43.92;40.78;;;;;;;;;;5013846;28;20045;-75
2021/03/15 01:59:16;;;;;;;124.05;40.90;;;;;;;;;;5033336;28;20589;-75
2021/03/15 02:01:46;;;;;;;217.80;39.75;;;;;;;;;;5023687;28;20042;-75
2021/03/15 02:04:16;;;;;;;86.78;40.33;;;;;;;;;;5044886;28;20069;-75
2021/03/15 02:06:44;;;;;;;61.70;37.83;;;;;;;;;;5032659;28;20068;-75
2021/03/15 02:09:13;;;;;;;164.60;38.33;;;;;;;;;;5044469;28;20069;-75
2021/03/15 02:11:40;;;;;;;39.80;37.13;;;;;;;;;;5031986;28;20053;-75
2021/03/15 02:14:20;;;;;;;133.77;39.25;;;;;;;;;;5031478;28;20044;-75
2021/03/15 02:16:47;;;;;;;101.85;38.78;;;;;;;;;;5025217;28;20087;-76
2021/03/15 02:19:20;;;;;;;42.38;38.35;;;;;;;;;;5049618;28;20706;-75
2021/03/15 02:22:06;;;;;;;40.00;35.10;;;;;;;;;;5033372;28;20037;-75
2021/03/15 02:24:52;;;;;;;37.08;35.83;;;;;;;;;;5028376;28;20038;-75
2021/03/15 02:27:22;;;;;;;37.28;35.95;;;;;;;;;;5016370;28;20083;-75
2021/03/15 02:30:08;;;;;;;34.42;33.25;;;;;;;;;;5044670;28;20386;-75
2021/03/15 02:32:47;;;;;;;38.40;37.00;;;;;;;;;;5011226;28;20059;-75
2021/03/15 02:35:22;;;;;;;36.53;35.17;;;;;;;;;;5033500;28;20547;-75
2021/03/15 02:37:53;;;;;;;40.53;39.03;;;;;;;;;;5043491;28;20071;-75
2021/03/15 02:40:28;;;;;;;40.20;38.85;;;;;;;;;;5029983;28;20414;-75
2021/03/15 02:42:57;;;;;;;38.55;36.63;;;;;;;;;;5033234;28;20040;-75
2021/03/15 02:45:25;;;;;;;64.63;40.80;;;;;;;;;;5045139;28;20040;-75
2021/03/15 02:47:52;;;;;;;95.10;40.88;;;;;;;;;;5049124;28;20059;-75
2021/03/15 02:50:20;;;;;;;38.97;37.50;;;;;;;;;;5029196;28;20068;-76
2021/03/15 02:52:48;;;;;;;43.50;41.35;;;;;;;;;;5024847;28;20045;-76
2021/03/15 02:55:18;;;;;;;39.78;38.25;;;;;;;;;;5032080;28;20037;-76
2021/03/15 02:57:46;;;;;;;40.47;38.88;;;;;;;;;;5048966;28;20037;-76
2021/03/15 03:00:14;;;;;;;39.80;38.30;;;;;;;;;;5031456;28;20080;-75
2021/03/15 03:02:43;;;;;;;40.05;38.50;;;;;;;;;;5047674;28;20122;-75
2021/03/15 03:05:12;;;;;;;40.92;39.28;;;;;;;;;;5013932;28;20406;-75
2021/03/15 03:07:41;;;;;;;38.03;36.78;;;;;;;;;;5045434;28;20456;-75
2021/03/15 03:10:09;;;;;;;37.10;35.72;;;;;;;;;;5044689;28;20037;-76
2021/03/15 03:12:39;;;;;;;44.15;41.78;;;;;;;;;;5029617;28;20037;-76
2021/03/15 03:15:08;;;;;;;40.20;38.30;;;;;;;;;;5048740;28;20432;-76
2021/03/15 03:17:39;;;;;;;41.55;39.75;;;;;;;;;;5022165;28;20045;-76
2021/03/15 03:20:14;;;;;;;40.47;38.97;;;;;;;;;;5023209;28;20037;-75
2021/03/15 03:22:42;;;;;;;40.08;38.58;;;;;;;;;;5045886;28;20051;-75
2021/03/15 03:25:11;;;;;;;40.67;39.17;;;;;;;;;;5044134;28;20059;-75
2021/03/15 03:27:40;;;;;;;35.90;34.67;;;;;;;;;;5021946;28;20100;-75
2021/03/15 03:30:08;;;;;;;39.22;37.83;;;;;;;;;;5027311;28;20033;-75
2021/03/15 03:32:37;;;;;;;38.72;36.42;;;;;;;;;;5029612;28;20029;-75
2021/03/15 03:35:05;;;;;;;38.55;37.15;;;;;;;;;;5048445;28;20128;-75
2021/03/15 03:37:32;;;;;;;40.42;37.80;;;;;;;;;;5027030;28;20045;-75
2021/03/15 03:40:00;;;;;;;287.75;43.70;;;;;;;;;;5048937;28;20152;-75
2021/03/15 03:42:27;;;;;;;82.63;39.92;;;;;;;;;;5029067;28;20072;-76
2021/03/15 03:44:54;;;;;;;112.68;42.03;;;;;;;;;;5027794;28;20051;-76
2021/03/15 03:47:21;;;;;;;42.03;39.80;;;;;;;;;;5028618;28;20045;-76
2021/03/15 03:49:48;;;;;;;214.10;45.17;;;;;;;;;;5017696;28;20523;-76
2021/03/15 03:52:17;;;;;;;124.20;42.67;;;;;;;;;;5026690;28;20041;-75
2021/03/15 03:54:49;;;;;;;97.45;38.10;;;;;;;;;;5049665;28;20115;-75
2021/03/15 03:57:20;;;;;;;126.45;38.70;;;;;;;;;;5050768;28;20276;-75
2021/03/15 03:59:50;;;;;;;96.65;40.17;;;;;;;;;;5035789;28;20061;-75
2021/03/15 04:02:19;;;;;;;92.38;37.17;;;;;;;;;;5031542;28;20433;-75
2021/03/15 04:04:47;;;;;;;39.70;37.17;;;;;;;;;;5033724;28;20053;-75
2021/03/15 04:07:17;;;;;;;60.42;38.03;;;;;;;;;;5049611;28;20063;-75
2021/03/15 04:09:47;;;;;;;43.78;38.42;;;;;;;;;;5030038;28;20445;-75
2021/03/15 04:12:15;;;;;;;58.55;41.00;;;;;;;;;;5043793;28;20049;-75
2021/03/15 04:14:45;;;;;;;67.60;39.45;;;;;;;;;;5032069;28;20075;-75
2021/03/15 04:17:16;;;;;;;76.15;38.80;;;;;;;;;;5030764;28;20034;-75
2021/03/15 04:19:49;;;;;;;49.42;38.53;;;;;;;;;;5034518;28;20033;-75
2021/03/15 04:22:16;;;;;;;38.75;37.22;;;;;;;;;;5048904;28;20041;-75
2021/03/15 04:24:44;;;;;;;77.97;38.90;;;;;;;;;;5053081;28;20049;-75
2021/03/15 04:27:11;;;;;;;89.05;41.88;;;;;;;;;;5041461;28;20057;-75
2021/03/15 04:29:39;;;;;;;38.80;35.40;;;;;;;;;;5012374;28;20049;-75
2021/03/15 04:32:10;;;;;;;42.97;38.22;;;;;;;;;;5034711;28;20068;-75
2021/03/15 04:34:38;;;;;;;46.42;38.05;;;;;;;;;;5033855;28;20037;-75
2021/03/15 04:37:07;;;;;;;96.20;38.95;;;;;;;;;;5048796;28;20417;-75
2021/03/15 04:39:35;;;;;;;38.50;37.20;;;;;;;;;;5034459;28;20040;-75
2021/03/15 04:42:02;;;;;;;37.70;35.90;;;;;;;;;;5048079;28;20038;-75
2021/03/15 04:44:30;;;;;;;38.58;34.22;;;;;;;;;;5019851;28;20128;-75
2021/03/15 04:46:57;;;;;;;43.40;38.85;;;;;;;;;;5017615;28;20041;-76
2021/03/15 04:49:24;;;;;;;41.83;38.20;;;;;;;;;;5029831;28;20039;-76
2021/03/15 04:51:51;;;;;;;40.90;38.05;;;;;;;;;;5023750;28;20102;-75
2021/03/15 04:54:18;;;;;;;41.05;38.92;;;;;;;;;;5047005;28;20065;-75
2021/03/15 04:56:46;;;;;;;41.65;40.03;;;;;;;;;;5020809;28;20053;-75
2021/03/15 04:59:14;;;;;;;41.33;38.15;;;;;;;;;;5030269;28;20079;-75
2021/03/15 05:01:43;;;;;;;42.25;38.53;;;;;;;;;;5031198;28;20034;-75
2021/03/15 05:04:12;;;;;;;40.80;39.22;;;;;;;;;;5049594;28;20033;-75
2021/03/15 05:06:39;;;;;;;43.35;39.72;;;;;;;;;;5047960;28;20537;-75
2021/03/15 05:09:11;;;;;;;40.20;38.83;;;;;;;;;;5050350;28;20506;-75
2021/03/15 05:11:39;;;;;;;39.88;36.88;;;;;;;;;;5022759;28;20049;-75
2021/03/15 05:14:06;;;;;;;39.60;37.60;;;;;;;;;;5041351;28;20065;-75
2021/03/15 05:16:37;;;;;;;41.95;38.03;;;;;;;;;;5052672;28;20087;-75
2021/03/15 05:19:07;;;;;;;61.00;37.35;;;;;;;;;;5032215;28;20040;-75
2021/03/15 05:21:35;;;;;;;44.40;39.92;;;;;;;;;;5015221;28;20040;-75
2021/03/15 05:24:03;;;;;;;39.25;36.65;;;;;;;;;;5033190;28;20103;-75
2021/03/15 05:26:31;;;;;;;45.80;41.80;;;;;;;;;;5046631;28;20051;-75
2021/03/15 05:29:02;;;;;;;44.30;40.67;;;;;;;;;;5050139;28;20041;-75
2021/03/15 05:31:30;;;;;;;193.80;45.33;;;;;;;;;;5047674;28;20044;-75
2021/03/15 05:33:58;;;;;;;190.93;38.38;;;;;;;;;;5029837;28;20651;-75
2021/03/15 05:36:25;;;;;;;165.75;42.58;;;;;;;;;;5018269;28;20078;-75
2021/03/15 05:38:52;;;;;;;178.18;41.97;;;;;;;;;;5046206;28;20037;-75
2021/03/15 05:41:23;;;;;;;288.77;44.83;;;;;;;;;;5031919;28;20474;-75
2021/03/15 05:44:01;;;;;;;246.18;44.45;;;;;;;;;;5011457;28;20445;-75
2021/03/15 05:46:43;;;;;;;40.13;35.88;;;;;;;;;;5025640;28;20136;-75
2021/03/15 05:49:29;;;;;;;136.48;42.53;;;;;;;;;;5018190;28;20045;-75
2021/03/15 05:51:56;;;;;;;42.10;40.17;;;;;;;;;;5017043;28;20559;-75
2021/03/15 05:54:39;;;;;;;262.58;47.45;;;;;;;;;;5024386;28;20647;-75
2021/03/15 05:57:12;;;;;;;39.30;35.88;;;;;;;;;;5049758;28;20064;-75
2021/03/15 05:59:57;;;;;;;87.38;41.50;;;;;;;;;;5031154;28;20478;-75
2021/03/15 06:02:34;;;;;;;88.40;39.35;;;;;;;;;;5045856;28;20068;-75
2021/03/15 06:05:17;;;;;;;84.72;37.25;;;;;;;;;;5033113;28;20040;-75
2021/03/15 06:07:50;;;;;;;45.78;41.30;;;;;;;;;;5043693;28;20064;-75
2021/03/15 06:11:07;;;;;;;138.80;40.15;;;;;;;;;;5025769;28;20041;-75
2021/03/15 06:13:35;;;;;;;149.38;39.80;;;;;;;;;;4991262;28;20071;-75
2021/03/15 06:16:02;;;;;;;74.72;36.47;;;;;;;;;;5027004;28;20048;-75
2021/03/15 06:18:30;;;;;;;81.07;37.53;;;;;;;;;;5026329;28;20065;-75
2021/03/15 06:20:57;;;;;;;135.77;40.13;;;;;;;;;;5026597;28;20815;-75
2021/03/15 06:23:25;;;;;;;81.43;39.13;;;;;;;;;;5010987;28;20057;-75
2021/03/15 06:25:53;;;;;;;101.35;39.85;;;;;;;;;;5027299;28;20077;-75
2021/03/15 06:28:21;;;;;;;108.47;40.40;;;;;;;;;;5005194;28;20196;-77
2021/03/15 06:30:49;;;;;;;38.85;34.72;;;;;;;;;;5010285;28;20485;-77
2021/03/15 06:33:17;;;;;;;41.40;37.80;;;;;;;;;;5010275;28;20104;-78
2021/03/15 06:35:49;;;;;;;94.32;40.67;;;;;;;;;;5026747;28;20418;-78
2021/03/15 06:38:19;;;;;;;44.92;38.08;;;;;;;;;;5025904;28;20052;-78
2021/03/15 06:41:01;;;;;;;40.72;37.40;;;;;;;;;;5011611;28;20056;-78
2021/03/15 06:43:28;;;;;;;36.20;34.67;;;;;;;;;;5023065;28;20045;-78
2021/03/15 06:45:56;;;;;;;41.63;39.67;;;;;;;;;;5014030;28;20053;-78
2021/03/15 06:48:24;;;;;;;45.65;39.75;;;;;;;;;;5013162;28;20038;-78
2021/03/15 06:50:52;;;;;;;40.50;38.00;;;;;;;;;;5026562;28;20061;-78
2021/03/15 06:53:20;;;;;;;45.85;41.90;;;;;;;;;;5033355;28;20076;-78
2021/03/15 06:55:49;;;;;;;62.70;40.40;;;;;;;;;;5010703;28;20060;-78
2021/03/15 06:58:19;;;;;;;188.75;47.47;;;;;;;;;;5030069;28;20077;-79
2021/03/15 07:00:46;;;;;;;86.90;43.05;;;;;;;;;;5028930;28;20444;-79
2021/03/15 07:03:24;;;;;;;169.93;44.20;;;;;;;;;;5027428;28;20076;-79
2021/03/15 07:05:58;;;;;;;144.60;44.85;;;;;;;;;;5031760;28;20822;-79
2021/03/15 07:08:25;;;;;;;82.55;45.55;;;;;;;;;;5030031;28;20494;-79
2021/03/15 07:10:55;;;;;;;340.98;54.83;;;;;;;;;;5044426;28;20041;-79
2021/03/15 07:13:23;;;;;;;260.77;55.90;;;;;;;;;;5032374;28;20490;-79
2021/03/15 07:15:52;;;;;;;140.98;50.72;;;;;;;;;;5029013;28;20504;-79
2021/03/15 07:18:20;;;;;;;273.42;64.10;;;;;;;;;;5028583;28;20913;-79
2021/03/15 07:20:51;;;;;;;90.63;60.65;;;;;;;;;;5029502;28;20477;-79
2021/03/15 07:23:37;;;;;;;108.70;60.42;;;;;;;;;;5043004;28;20064;-78
2021/03/15 07:26:30;;;;;;;122.88;50.65;;;;;;;;;;5029618;28;20542;-78
2021/03/15 07:28:58;;;;;;;109.28;51.63;;;;;;;;;;5045321;28;20111;-78
2021/03/15 07:31:30;;;;;;;126.53;44.70;;;;;;;;;;5043869;28;20041;-78
2021/03/15 07:33:57;;;;;;;105.28;48.67;;;;;;;;;;5050052;28;20040;-78
2021/03/15 07:36:31;;;;;;;123.38;45.50;;;;;;;;;;5047973;28;20045;-78
2021/03/15 07:38:59;;;;;;;160.63;42.83;;;;;;;;;;5027750;28;20085;-78
2021/03/15 07:41:43;;;;;;;41.03;38.13;;;;;;;;;;5049641;28;20043;-79
2021/03/15 07:44:16;;;;;;;42.65;39.03;;;;;;;;;;5028011;28;20041;-79
2021/03/15 07:46:45;;;;;;;170.25;58.85;;;;;;;;;;5048012;28;20052;-79
2021/03/15 07:49:22;;;;;;;219.55;46.35;;;;;;;;;;5028935;28;20069;-79
2021/03/15 07:51:56;;;;;;;177.10;45.28;;;;;;;;;;5029437;28;20045;-79
2021/03/15 07:54:27;;;;;;;40.35;37.67;;;;;;;;;;5049044;28;20475;-79
2021/03/15 07:57:13;;;;;;;39.78;37.55;;;;;;;;;;5043676;28;20386;-79
2021/03/15 07:59:40;;;;;;;35.67;33.63;;;;;;;;;;5027565;28;20546;-79
2021/03/15 08:02:13;;;;;;;26.65;24.67;;;;;;;;;;5049335;28;20162;-79
2021/03/15 08:04:40;;;;;;;17.92;16.63;;;;;;;;;;5027421;28;20053;-79
2021/03/15 08:07:07;;;;;;;35.38;32.17;;;;;;;;;;5045556;28;20103;-79
2021/03/15 08:09:34;;;;;;;74.13;54.92;;;;;;;;;;5048973;28;20122;-79
2021/03/15 08:12:08;;;;;;;46.53;42.92;;;;;;;;;;5042748;28;20474;-79
2021/03/15 08:14:36;;;;;;;48.95;44.65;;;;;;;;;;5014111;28;20042;-79
2021/03/15 08:17:04;;;;;;;48.70;45.30;;;;;;;;;;5006431;28;20053;-79
2021/03/15 08:19:32;;;;;;;39.40;36.28;;;;;;;;;;5018595;28;20064;-79
2021/03/15 08:22:02;;;;;;;41.28;37.60;;;;;;;;;;5029001;28;20099;-79
2021/03/15 08:24:32;;;;;;;25.05;22.35;;;;;;;;;;5024676;28;20045;-79
2021/03/15 08:27:01;;;;;;;24.33;21.88;;;;;;;;;;5017494;28;20591;-79
2021/03/15 08:29:29;;;;;;;24.27;22.38;;;;;;;;;;5027983;28;20041;-79
2021/03/15 08:31:57;;;;;;;26.27;24.08;;;;;;;;;;5022001;28;20046;-79
2021/03/15 08:34:26;;;;;;;27.60;24.85;;;;;;;;;;5027992;28;20065;-79
2021/03/15 08:36:55;;;;;;;23.98;21.92;;;;;;;;;;5030149;28;20064;-79
2021/03/15 08:39:37;;;;;;;23.98;21.77;;;;;;;;;;5028422;28;20041;-79
2021/03/15 08:42:14;;;;;;;23.25;21.13;;;;;;;;;;5032601;28;20120;-79
2021/03/15 08:45:01;;;;;;;22.25;20.70;;;;;;;;;;5028139;28;20053;-79
2021/03/15 08:47:49;;;;;;;20.23;18.55;;;;;;;;;;5030230;28;20049;-79
2021/03/15 08:50:45;;;;;;;19.98;18.38;;;;;;;;;;5032996;28;20056;-79
2021/03/15 08:53:32;;;;;;;24.20;21.90;;;;;;;;;;4994423;28;20563;-79
2021/03/15 08:56:00;;;;;;;20.33;18.63;;;;;;;;;;4993309;28;20101;-79
2021/03/15 08:58:36;;;;;;;15.13;14.23;;;;;;;;;;5001923;28;20066;-79
2021/03/15 09:01:04;;;;;;;21.10;19.58;;;;;;;;;;4978353;28;20092;-79
2021/03/15 09:04:00;;;;;;;23.63;19.33;;;;;;;;;;4992592;28;20575;-79
2021/03/15 09:06:37;;;;;;;21.55;19.77;;;;;;;;;;4994167;28;20136;-79
2021/03/15 09:09:10;;;;;;;25.80;23.33;;;;;;;;;;5009691;28;20037;-79
2021/03/15 09:11:37;;;;;;;7.30;7.15;;;;;;;;;;4991382;28;20054;-79
2021/03/15 09:14:17;;;;;;;7.60;7.40;;;;;;;;;;5010653;28;20057;-79
2021/03/15 09:16:48;;;;;;;5.28;5.18;;;;;;;;;;5009044;28;20050;-79
2021/03/15 09:19:18;;;;;;;6.85;6.65;;;;;;;;;;4991674;28;20049;-79
2021/03/15 09:21:57;;;;;;;5.50;5.40;;;;;;;;;;4994204;28;20104;-79
2021/03/15 09:24:37;;;;;;;5.47;5.28;;;;;;;;;;5008540;28;20037;-79
2021/03/15 09:27:05;;;;;;;5.43;5.00;;;;;;;;;;4992803;28;20089;-79
2021/03/15 09:29:34;;;;;;;4.78;4.68;;;;;;;;;;5014963;28;20514;-79
2021/03/15 09:32:03;;;;;;;4.30;4.20;;;;;;;;;;5027031;28;20394;-79
2021/03/15 09:34:31;;;;;;;4.28;4.18;;;;;;;;;;5012914;28;20438;-79
2021/03/15 09:36:58;;;;;;;4.43;4.25;;;;;;;;;;5022132;28;20045;-79
2021/03/15 09:39:28;;;;;;;3.20;3.20;;;;;;;;;;5029508;28;20069;-79
2021/03/15 09:41:55;;;;;;;3.78;3.78;;;;;;;;;;5027597;28;20474;-79
2021/03/15 09:44:23;;;;;;;3.00;2.88;;;;;;;;;;5026932;28;20497;-79
2021/03/15 09:46:53;;;;;;;2.47;2.47;;;;;;;;;;5028899;28;20046;-79
2021/03/15 09:49:39;;;;;;;2.70;2.70;;;;;;;;;;5028405;28;20076;-80
2021/03/15 09:52:22;;;;;;;2.40;2.30;;;;;;;;;;5026330;28;20041;-79
2021/03/15 09:54:52;;;;;;;2.35;2.35;;;;;;;;;;5031743;28;20351;-79
2021/03/15 09:57:20;;;;;;;2.28;2.28;;;;;;;;;;5009260;28;20053;-79
2021/03/15 10:00:05;;;;;;;2.35;2.35;;;;;;;;;;5029303;28;20128;-79
2021/03/15 10:02:32;;;;;;;2.65;2.65;;;;;;;;;;5030423;28;20045;-79
2021/03/15 10:05:04;;;;;;;2.47;2.38;;;;;;;;;;5025087;28;20049;-79
2021/03/15 10:07:33;;;;;;;2.53;2.45;;;;;;;;;;5031244;28;20116;-80
2021/03/15 10:10:11;;;;;;;1.98;1.95;;;;;;;;;;5013945;28;20132;-80
2021/03/15 10:12:38;;;;;;;1.90;1.90;;;;;;;;;;5025804;28;20077;-80
2021/03/15 10:15:07;;;;;;;1.80;1.80;;;;;;;;;;5040227;28;20158;-79
2021/03/15 10:17:35;;;;;;;1.75;1.75;;;;;;;;;;5031846;28;20033;-79
2021/03/15 10:20:04;;;;;;;2.13;2.13;;;;;;;;;;5030825;28;20040;-79
2021/03/15 10:22:33;;;;;;;1.92;1.92;;;;;;;;;;5030432;28;20478;-79
2021/03/15 10:25:01;;;;;;;1.90;1.90;;;;;;;;;;5014346;28;20059;-79
2021/03/15 10:27:29;;;;;;;2.45;2.45;;;;;;;;;;5033389;28;20144;-79
2021/03/15 10:29:57;;;;;;;2.40;2.40;;;;;;;;;;5029251;28;20044;-79
2021/03/15 10:32:26;;;;;;;1.73;1.73;;;;;;;;;;5047321;28;20091;-79
2021/03/15 10:34:55;;;;;;;2.28;2.28;;;;;;;;;;5032804;28;20041;-79
2021/03/15 10:37:24;;;;;;;1.90;1.90;;;;;;;;;;5028226;28;20048;-79
2021/03/15 10:39:52;;;;;;;2.67;2.67;;;;;;;;;;5051570;28;20037;-79
2021/03/15 10:42:21;;;;;;;1.40;1.40;;;;;;;;;;5047546;28;20405;-79
2021/03/15 10:44:48;;;;;;;1.60;1.60;;;;;;;;;;5045747;28;20158;-79
2021/03/15 10:47:26;;;;;;;1.40;1.40;;;;;;;;;;5050909;28;20568;-79
2021/03/15 10:49:53;;;;;;;1.38;1.38;;;;;;;;;;5046432;28;20375;-79
2021/03/15 10:52:28;;;;;;;1.60;1.60;;;;;;;;;;5048048;28;20767;-80
2021/03/15 10:54:54;;;;;;;;;;;;;;;;;;5049083;28;20067;-80
2021/03/15 10:57:22;;;;;;;1.83;1.83;;;;;;;;;;5028380;28;19921;-80
2021/03/15 10:59:50;;;;;;;2.10;2.08;;;;;;;;;;5049474;28;20041;-80
2021/03/15 11:02:20;;;;;;;1.70;1.70;;;;;;;;;;5043748;28;20392;-80
2021/03/15 11:04:53;;;;;;;1.58;1.58;;;;;;;;;;5043904;28;20048;-80
2021/03/15 11:07:25;;;;;;;1.30;1.30;;;;;;;;;;5036191;28;20050;-80
2021/03/15 11:09:55;;;;;;;1.38;1.38;;;;;;;;;;5042292;28;20041;-80
2021/03/15 11:12:34;;;;;;;1.58;1.58;;;;;;;;;;5021182;28;20116;-80
2021/03/15 11:15:10;;;;;;;1.10;1.10;;;;;;;;;;5049042;28;20048;-80
2021/03/15 11:17:37;;;;;;;3.78;3.67;;;;;;;;;;5044295;28;20045;-80
2021/03/15 11:20:07;;;;;;;2.10;2.00;;;;;;;;;;5031177;28;20045;-80
2021/03/15 11:22:47;;;;;;;1.30;1.30;;;;;;;;;;5032225;28;20072;-80
2021/03/15 11:25:15;;;;;;;1.30;1.30;;;;;;;;;;5027819;28;20381;-80
2021/03/15 11:27:46;;;;;;;1.45;1.40;;;;;;;;;;5050615;28;20124;-80
2021/03/15 11:30:21;;;;;;;1.67;1.67;;;;;;;;;;5047577;28;20074;-80
2021/03/15 11:32:48;;;;;;;1.77;1.77;;;;;;;;;;5031102;28;20049;-80
2021/03/15 11:35:19;;;;;;;1.77;1.77;;;;;;;;;;5031350;28;20072;-80
2021/03/15 11:37:48;;;;;;;1.45;1.45;;;;;;;;;;5043661;28;20034;-80
2021/03/15 11:40:34;;;;;;;1.40;1.40;;;;;;;;;;5031051;28;20045;-80
2021/03/15 11:43:01;;;;;;;1.77;1.77;;;;;;;;;;5050057;28;20075;-80
2021/03/15 11:45:28;;;;;;;2.10;2.10;;;;;;;;;;5045046;28;20041;-80
2021/03/15 11:47:56;;;;;;;2.65;2.65;;;;;;;;;;5048944;28;20114;-80
2021/03/15 11:50:27;;;;;;;1.60;1.60;;;;;;;;;;5045754;28;20409;-80
2021/03/15 11:52:55;;;;;;;1.40;1.40;;;;;;;;;;5047672;28;20509;-80
2021/03/15 11:55:23;;;;;;;2.05;1.95;;;;;;;;;;5031582;28;20421;-80
2021/03/15 11:57:50;;;;;;;1.30;1.30;;;;;;;;;;5025367;28;20077;-80
2021/03/15 12:00:18;;;;;;;1.60;1.60;;;;;;;;;;5049807;28;20052;-80
2021/03/15 12:02:46;;;;;;;3.75;2.42;;;;;;;;;;5025021;28;20057;-80
2021/03/15 12:05:14;;;;;;;1.30;1.30;;;;;;;;;;5026979;28;20045;-80
2021/03/15 12:07:42;;;;;;;1.83;1.73;;;;;;;;;;5033154;28;20382;-80
2021/03/15 12:10:10;;;;;;;1.70;1.70;;;;;;;;;;5048031;28;20041;-80
2021/03/15 12:12:37;;;;;;;1.63;1.63;;;;;;;;;;5035788;28;20056;-80
2021/03/15 12:15:24;;;;;;;1.70;1.60;;;;;;;;;;5025957;28;20045;-80
2021/03/15 12:18:03;;;;;;;3.05;2.97;;;;;;;;;;5049719;28;20040;-80
2021/03/15 12:20:30;;;;;;;2.15;2.05;;;;;;;;;;5052361;28;20063;-80
2021/03/15 12:22:57;;;;;;;2.75;2.75;;;;;;;;;;5034366;28;20691;-80
2021/03/15 12:25:24;;;;;;;2.95;2.78;;;;;;;;;;5030169;28;20131;-80
2021/03/15 12:27:54;;;;;;;1.60;1.60;;;;;;;;;;5018156;28;20050;-80
2021/03/15 12:30:23;;;;;;;1.30;1.30;;;;;;;;;;5046878;28;20045;-80
2021/03/15 12:32:50;;;;;;;1.83;1.83;;;;;;;;;;5050118;28;20049;-80
2021/03/15 12:35:17;;;;;;;2.47;2.47;;;;;;;;;;5054135;28;20536;-80
2021/03/15 12:37:46;;;;;;;1.55;1.55;;;;;;;;;;5050416;28;20064;-80
2021/03/15 12:40:13;;;;;;;2.60;2.60;;;;;;;;;;5030571;28;20049;-80
2021/03/15 12:42:41;;;;;;;4.45;4.30;;;;;;;;;;5043990;28;20344;-80
2021/03/15 12:45:09;;;;;;;1.75;1.65;;;;;;;;;;5045824;28;20033;-80
2021/03/15 12:47:36;;;;;;;1.83;1.80;;;;;;;;;;5030672;28;20157;-80
2021/03/15 12:50:04;;;;;;;1.90;1.90;;;;;;;;;;5042092;28;20041;-80
2021/03/15 12:52:31;;;;;;;2.60;2.60;;;;;;;;;;5035071;28;20188;-80
2021/03/15 12:54:58;;;;;;;1.73;1.73;;;;;;;;;;5034863;28;20080;-80
2021/03/15 12:57:25;;;;;;;1.77;1.77;;;;;;;;;;5030958;28;20037;-80
2021/03/15 12:59:52;;;;;;;2.33;2.22;;;;;;;;;;5051056;28;20099;-80
2021/03/15 13:02:20;;;;;;;1.88;1.88;;;;;;;;;;5017021;28;20083;-80
2021/03/15 13:04:48;;;;;;;1.40;1.40;;;;;;;;;;5051939;28;20474;-80
2021/03/15 13:07:15;;;;;;;1.25;1.25;;;;;;;;;;5031068;28;20037;-80
2021/03/15 13:09:42;;;;;;;1.30;1.30;;;;;;;;;;5049928;28;20045;-80
2021/03/15 13:12:10;;;;;;;2.25;2.05;;;;;;;;;;5032665;28;20041;-80
2021/03/15 13:14:36;;;;;;;2.05;2.00;;;;;;;;;;5044977;28;20049;-80
2021/03/15 13:17:04;;;;;;;1.83;1.83;;;;;;;;;;5050447;28;20099;-80
2021/03/15 13:19:31;;;;;;;4.28;4.18;;;;;;;;;;5048622;28;20041;-80
2021/03/15 13:21:58;;;;;;;3.88;2.15;;;;;;;;;;5048347;28;20032;-80
2021/03/15 13:24:25;;;;;;;1.58;1.58;;;;;;;;;;5021068;28;20094;-80
2021/03/15 13:26:52;;;;;;;1.80;1.77;;;;;;;;;;5028998;28;20159;-80
2021/03/15 13:29:19;;;;;;;1.42;1.42;;;;;;;;;;5044605;28;20032;-80
2021/03/15 13:31:46;;;;;;;3.65;3.55;;;;;;;;;;5046879;28;20041;-80
2021/03/15 13:34:14;;;;;;;3.95;3.85;;;;;;;;;;5029655;28;20049;-80
2021/03/15 13:36:41;;;;;;;3.70;3.60;;;;;;;;;;5034447;28;20542;-80
2021/03/15 13:39:09;;;;;;;5.03;2.05;;;;;;;;;;5029896;28;20348;-80
2021/03/15 13:41:36;;;;;;;1.45;1.45;;;;;;;;;;5029617;28;20123;-80
2021/03/15 13:44:03;;;;;;;2.15;2.15;;;;;;;;;;5005617;28;20041;-80
2021/03/15 13:46:33;;;;;;;2.10;2.10;;;;;;;;;;5026682;28;20056;-80
2021/03/15 13:49:00;;;;;;;1.95;1.85;;;;;;;;;;5036952;28;20524;-81
2021/03/15 13:51:28;;;;;;;1.45;1.45;;;;;;;;;;5047146;28;20057;-81
2021/03/15 13:53:56;;;;;;;1.92;1.92;;;;;;;;;;5047834;28;20075;-79
2021/03/15 13:56:23;;;;;;;6.05;5.75;;;;;;;;;;5030480;28;20045;-79
2021/03/15 13:58:50;;;;;;;2.08;2.08;;;;;;;;;;5012049;28;20040;-79
2021/03/15 14:01:17;;;;;;;2.75;2.67;;;;;;;;;;5052285;28;20170;-79
2021/03/15 14:03:44;;;;;;;2.30;2.20;;;;;;;;;;5033930;28;20107;-79
2021/03/15 14:06:12;;;;;;;3.80;3.70;;;;;;;;;;5030069;28;20033;-79
2021/03/15 14:08:39;;;;;;;10.40;9.80;;;;;;;;;;5050214;28;20098;-79
2021/03/15 14:11:06;;;;;;;4.20;4.05;;;;;;;;;;5027040;28;20041;-79
2021/03/15 14:13:33;;;;;;;3.97;3.88;;;;;;;;;;5051789;28;20041;-79
2021/03/15 14:16:01;;;;;;;3.75;3.55;;;;;;;;;;5029347;28;20049;-79
2021/03/15 14:18:29;;;;;;;1.77;1.77;;;;;;;;;;5028865;28;20463;-79
2021/03/15 14:20:56;;;;;;;2.33;2.22;;;;;;;;;;5027510;28;20057;-79
2021/03/15 14:23:23;;;;;;;2.15;2.15;;;;;;;;;;5024061;28;20042;-79
2021/03/15 14:25:50;;;;;;;1.40;1.40;;;;;;;;;;5027825;28;20058;-79
2021/03/15 14:28:17;;;;;;;1.58;1.52;;;;;;;;;;5026798;28;20045;-80
2021/03/15 14:30:45;;;;;;;3.90;3.75;;;;;;;;;;5025556;28;20491;-79
2021/03/15 14:33:12;;;;;;;1.42;1.40;;;;;;;;;;5010627;28;20065;-79
2021/03/15 14:35:39;;;;;;;1.30;1.30;;;;;;;;;;5027069;28;20084;-79
2021/03/15 14:38:06;;;;;;;1.20;1.20;;;;;;;;;;5047293;28;20034;-79
2021/03/15 14:40:33;;;;;;;1.52;1.42;;;;;;;;;;5023025;28;20050;-80
2021/03/15 14:43:00;;;;;;;1.40;1.30;;;;;;;;;;5011654;28;20042;-79